createdAt,value
2019-01-21T00:00:47.657Z,100889.28
2019-01-21T00:03:26.512Z,100896.13
2019-01-21T00:06:01.905Z,100891.64
2019-01-21T00:08:35.618Z,100888.16
2019-01-21T00:11:09.153Z,100897.14
2019-01-21T00:13:41.810Z,100891.25
2019-01-21T00:16:15.583Z,100898.37
2019-01-21T00:18:52.376Z,100896.97
2019-01-21T00:21:27.112Z,100898.65
2019-01-21T00:24:03.888Z,100898.26
2019-01-21T00:26:38.025Z,100894.66
2019-01-21T00:29:13.149Z,100903.19
2019-01-21T00:31:47.892Z,100902.69
2019-01-21T00:34:19.689Z,100901.55
2019-01-21T00:36:51.366Z,100903.08
2019-01-21T00:39:24.526Z,100902.69
2019-01-21T00:41:56.091Z,100905.66
2019-01-21T00:44:27.540Z,100906.99
2019-01-21T00:46:59.188Z,100909.46
2019-01-21T00:49:30.745Z,100906.65
2019-01-21T00:52:03.208Z,100911.08
2019-01-21T00:54:34.596Z,100907.59
2019-01-21T00:57:06.046Z,100905.67
2019-01-21T00:59:39.220Z,100904.94
2019-01-21T01:02:10.677Z,100908.69
2019-01-21T01:04:43.794Z,100912.06
2019-01-21T01:07:18.321Z,100915.42
2019-01-21T01:09:49.839Z,100913.89
2019-01-21T01:12:22.529Z,100913.16
2019-01-21T01:14:54.745Z,100920.00
2019-01-21T01:17:27.915Z,100925.70
2019-01-21T01:20:01.958Z,100934.46
2019-01-21T01:22:33.620Z,100935.24
2019-01-21T01:25:07.386Z,100936.30
2019-01-21T01:27:40.612Z,100938.37
2019-01-21T01:30:17.416Z,100939.39
2019-01-21T01:32:51.634Z,100945.56
2019-01-21T01:35:23.241Z,100939.66
2019-01-21T01:37:57.925Z,100943.53
2019-01-21T01:40:29.573Z,100948.57
2019-01-21T01:43:02.565Z,100946.11
2019-01-21T01:45:36.919Z,100948.27
2019-01-21T01:48:08.726Z,100952.80
2019-01-21T01:50:40.253Z,100959.41
2019-01-21T01:53:13.023Z,100962.13
2019-01-21T01:55:44.669Z,100958.80
2019-01-21T01:58:16.270Z,100958.30
2019-01-21T02:00:47.774Z,100958.05
2019-01-21T02:03:19.222Z,100956.41
2019-01-21T02:05:53.899Z,100965.95
2019-01-21T02:08:25.488Z,100960.16
2019-01-21T02:10:56.983Z,100960.67
2019-01-21T02:13:28.578Z,100964.54
2019-01-21T02:16:00.251Z,100960.28
2019-01-21T02:18:32.255Z,100967.50
2019-01-21T02:21:06.110Z,100962.23
2019-01-21T02:23:38.342Z,100961.45
2019-01-21T02:26:14.629Z,100958.36
2019-01-21T02:29:05.511Z,100959.26
2019-01-21T02:32:02.549Z,100963.52
2019-01-21T02:34:44.293Z,100952.18
2019-01-21T02:37:41.445Z,100956.83
2019-01-21T02:40:38.446Z,100961.09
2019-01-21T02:43:23.521Z,100951.04
2019-01-21T02:46:02.332Z,100956.98
2019-01-21T02:49:02.768Z,100949.51
2019-01-21T02:52:00.049Z,100949.51
2019-01-21T02:55:00.923Z,100950.41
2019-01-21T02:57:42.639Z,100952.21
2019-01-21T03:00:30.620Z,100951.97
2019-01-21T03:03:27.073Z,100952.23
2019-01-21T03:06:06.202Z,100948.64
2019-01-21T03:09:05.057Z,100946.33
2019-01-21T03:12:06.765Z,100956.13
2019-01-21T03:14:58.735Z,100954.09
2019-01-21T03:18:08.007Z,100954.88
2019-01-21T03:21:25.157Z,100955.89
2019-01-21T03:24:47.718Z,100944.05
2019-01-21T03:27:55.439Z,100947.80
2019-01-21T03:30:53.259Z,100948.58
2019-01-21T03:33:58.060Z,100952.44
2019-01-21T03:36:43.115Z,100948.69
2019-01-21T03:39:49.167Z,100953.84
2019-01-21T03:42:25.655Z,100952.94
2019-01-21T03:45:28.779Z,100952.70
2019-01-21T03:48:16.622Z,100958.75
2019-01-21T03:51:30.615Z,100956.71
2019-01-21T03:54:06.786Z,100960.19
2019-01-21T03:56:42.319Z,100958.53
2019-01-21T03:59:30.194Z,100958.92
2019-01-21T04:02:25.848Z,100960.09
2019-01-21T04:05:11.112Z,100961.64
2019-01-21T04:08:08.189Z,100961.02
2019-01-21T04:11:06.851Z,100960.77
2019-01-21T04:14:14.519Z,100963.61
2019-01-21T04:17:13.405Z,100958.72
2019-01-21T04:19:52.330Z,100964.65
2019-01-21T04:22:31.304Z,100962.07
2019-01-21T04:25:16.444Z,100965.18
2019-01-21T04:28:04.462Z,100960.80
2019-01-21T04:31:04.789Z,100960.16
2019-01-21T04:34:08.299Z,100970.72
2019-01-21T04:37:02.305Z,100967.62
2019-01-21T04:39:45.716Z,100965.97
2019-01-21T04:42:44.668Z,100968.55
2019-01-21T04:45:29.865Z,100964.83
2019-01-21T04:48:21.633Z,100978.09
2019-01-21T04:51:15.802Z,100975.00
2019-01-21T04:54:06.757Z,100982.48
2019-01-21T04:57:11.828Z,100976.30
2019-01-21T05:00:04.672Z,100974.38
2019-01-21T05:03:17.498Z,100975.16
2019-01-21T05:06:08.668Z,100974.13
2019-01-21T05:09:13.654Z,100972.33
2019-01-21T05:12:11.910Z,100980.32
2019-01-21T05:15:07.435Z,100975.30
2019-01-21T05:17:55.153Z,100975.81
2019-01-21T05:20:54.256Z,100980.70
2019-01-21T05:23:54.471Z,100976.72
2019-01-21T05:26:38.632Z,100978.52
2019-01-21T05:29:37.261Z,100980.20
2019-01-21T05:32:21.082Z,100976.72
2019-01-21T05:35:02.888Z,100981.23
2019-01-21T05:37:47.823Z,100982.78
2019-01-21T05:40:45.408Z,100981.23
2019-01-21T05:43:33.431Z,100982.13
2019-01-21T05:46:36.655Z,100990.63
2019-01-21T05:49:45.687Z,100989.34
2019-01-21T05:52:29.947Z,100989.09
2019-01-21T05:55:25.355Z,100997.71
2019-01-21T05:58:16.455Z,101003.37
2019-01-21T06:01:29.052Z,100999.13
2019-01-21T06:04:26.166Z,100994.23
2019-01-21T06:07:32.248Z,101005.44
2019-01-21T06:10:32.307Z,101005.44
2019-01-21T06:13:16.530Z,101002.86
2019-01-21T06:16:04.151Z,100999.39
2019-01-21T06:18:48.558Z,101004.55
2019-01-21T06:21:45.563Z,101010.08
2019-01-21T06:24:24.508Z,101019.09
2019-01-21T06:27:20.975Z,101017.94
2019-01-21T06:30:31.910Z,101020.26
2019-01-21T06:33:27.325Z,101022.95
2019-01-21T06:36:22.235Z,101019.74
2019-01-21T06:39:25.508Z,101021.42
2019-01-21T06:42:19.441Z,101024.77
2019-01-21T06:45:17.875Z,101022.84
2019-01-21T06:48:19.719Z,101027.98
2019-01-21T06:51:24.518Z,101032.92
2019-01-21T06:54:24.620Z,101037.94
2019-01-21T06:57:29.409Z,101040.65
2019-01-21T07:00:32.139Z,101036.66
2019-01-21T07:03:36.387Z,101047.34
2019-01-21T07:06:37.560Z,101042.19
2019-01-21T07:09:31.908Z,101043.48
2019-01-21T07:12:16.967Z,101047.09
2019-01-21T07:15:16.858Z,101049.23
2019-01-21T07:18:17.341Z,101048.08
2019-01-21T07:21:01.958Z,101042.80
2019-01-21T07:24:01.833Z,101041.94
2019-01-21T07:27:06.593Z,101050.78
2019-01-21T07:29:54.763Z,101050.01
2019-01-21T07:32:57.160Z,101049.37
2019-01-21T07:35:45.133Z,101044.73
2019-01-21T07:38:27.152Z,101042.16
2019-01-21T07:41:06.197Z,101047.82
2019-01-21T07:44:03.033Z,101045.50
2019-01-21T07:47:21.548Z,101044.98
2019-01-21T07:50:27.791Z,101040.20
2019-01-21T07:53:19.083Z,101045.75
2019-01-21T07:56:21.752Z,101044.97
2019-01-21T07:59:28.475Z,101043.30
2019-01-21T08:02:07.272Z,101049.09
2019-01-21T08:04:58.455Z,101050.63
2019-01-21T08:07:39.853Z,101049.09
2019-01-21T08:10:39.816Z,101050.75
2019-01-21T08:13:21.623Z,101051.13
2019-01-21T08:16:12.490Z,101055.38
2019-01-21T08:19:03.359Z,101055.75
2019-01-21T08:21:50.765Z,101062.95
2019-01-21T08:24:38.833Z,101065.52
2019-01-21T08:27:55.258Z,101056.61
2019-01-21T08:30:58.563Z,101058.41
2019-01-21T08:33:55.653Z,101060.61
2019-01-21T08:36:40.064Z,101067.16
2019-01-21T08:39:36.942Z,101069.21
2019-01-21T08:42:38.511Z,101068.41
2019-01-21T08:45:26.420Z,101071.48
2019-01-21T08:48:05.280Z,101078.42
2019-01-21T08:50:56.336Z,101072.20
2019-01-21T08:53:57.256Z,101073.08
2019-01-21T08:57:04.587Z,101075.37
2019-01-21T08:59:58.299Z,101079.45
2019-01-21T09:02:49.312Z,101078.53
2019-01-21T09:05:55.943Z,101085.70
2019-01-21T09:08:54.592Z,101086.19
2019-01-21T09:11:44.679Z,101091.83
2019-01-21T09:15:05.878Z,101084.56
2019-01-21T09:17:59.637Z,101090.48
2019-01-21T09:21:04.079Z,101090.28
2019-01-21T09:23:51.757Z,101096.31
2019-01-21T09:26:54.958Z,101092.02
2019-01-21T09:34:07.223Z,101094.29
2019-01-21T09:36:45.872Z,101097.34
2019-01-21T09:39:24.852Z,101095.93
2019-01-21T09:42:12.659Z,101099.09
2019-01-21T09:45:29.545Z,101107.32
2019-01-21T09:47:59.853Z,101111.78
2019-01-21T09:50:31.467Z,101102.97
2019-01-21T09:53:03.372Z,101099.05
2019-01-21T09:55:40.305Z,101100.63
2019-01-21T09:58:18.740Z,101110.81
2019-01-21T10:00:50.430Z,101107.28
2019-01-21T10:03:22.324Z,101103.62
2019-01-21T10:06:06.566Z,101109.77
2019-01-21T10:08:57.403Z,101106.62
2019-01-21T10:11:36.367Z,101106.69
2019-01-21T10:14:40.351Z,101110.63
2019-01-21T10:17:54.115Z,101107.98
2019-01-21T10:20:45.032Z,101105.06
2019-01-21T10:23:45.243Z,101100.05
2019-01-21T10:26:57.489Z,101094.14
2019-01-21T10:29:48.574Z,101095.59
2019-01-21T10:32:39.535Z,101092.77
2019-01-21T10:35:55.135Z,101091.23
2019-01-21T10:38:54.727Z,101095.98
2019-01-21T10:41:36.601Z,101094.55
2019-01-21T10:44:27.315Z,101084.73
2019-01-21T10:47:13.563Z,101085.45
2019-01-21T10:50:10.800Z,101074.62
2019-01-21T10:53:23.387Z,101083.14
2019-01-21T10:56:20.716Z,101076.69
2019-01-21T10:59:38.690Z,101066.45
2019-01-21T11:02:35.591Z,101060.42
2019-01-21T11:05:35.848Z,101061.73
2019-01-21T11:08:35.489Z,101059.56
2019-01-21T11:11:30.131Z,101054.09
2019-01-21T11:14:44.925Z,101058.19
2019-01-21T11:17:46.523Z,101055.41
2019-01-21T11:20:41.929Z,101052.92
2019-01-21T11:23:29.768Z,101046.35
2019-01-21T11:26:42.805Z,101041.66
2019-01-21T11:29:38.357Z,101045.46
2019-01-21T11:32:39.998Z,101038.68
2019-01-21T11:35:34.870Z,101037.32
2019-01-21T11:38:34.675Z,101036.32
2019-01-21T11:41:19.629Z,101027.33
2019-01-21T11:44:06.822Z,101028.82
2019-01-21T11:46:58.503Z,101025.11
2019-01-21T11:49:49.339Z,101025.72
2019-01-21T11:52:43.534Z,101020.31
2019-01-21T11:55:58.795Z,101015.81
2019-01-21T11:58:42.460Z,101014.01
2019-01-21T12:01:53.139Z,101012.30
2019-01-21T12:04:37.796Z,101008.98
2019-01-21T12:07:45.190Z,101009.07
2019-01-21T12:10:44.537Z,101009.66
2019-01-21T12:13:37.426Z,101000.56
2019-01-21T12:16:57.563Z,100994.22
2019-01-21T12:19:55.632Z,100997.34
2019-01-21T12:23:01.072Z,100994.75
2019-01-21T12:25:48.672Z,100986.91
2019-01-21T12:28:53.388Z,100985.58
2019-01-21T12:31:52.828Z,100991.23
2019-01-21T12:34:46.793Z,100987.56
2019-01-21T12:37:38.767Z,100987.88
2019-01-21T12:40:26.183Z,100981.06
2019-01-21T12:43:12.380Z,100979.23
2019-01-21T12:45:56.936Z,100977.65
2019-01-21T12:51:57.925Z,100967.22
2019-01-21T12:54:45.842Z,100977.84
2019-01-21T12:57:52.303Z,100968.09
2019-01-21T13:00:50.750Z,100969.80
2019-01-21T13:03:51.338Z,100965.42
2019-01-21T13:06:54.021Z,100955.09
2019-01-21T13:09:53.525Z,100956.80
2019-01-21T13:12:49.751Z,100949.37
2019-01-21T13:15:45.001Z,100954.38
2019-01-21T13:18:51.194Z,100941.50
2019-01-21T13:21:58.892Z,100937.53
2019-01-21T13:25:12.682Z,100942.50
2019-01-21T13:28:18.203Z,100946.36
2019-01-21T13:31:19.735Z,100932.94
2019-01-21T13:34:28.293Z,100937.34
2019-01-21T13:37:38.773Z,100930.55
2019-01-21T13:40:32.800Z,100926.39
2019-01-21T13:43:43.592Z,100925.66
2019-01-21T13:47:09.947Z,100923.14
2019-01-21T13:50:01.019Z,100919.67
2019-01-21T13:53:14.250Z,100916.70
2019-01-21T13:56:03.280Z,100916.05
2019-01-21T13:59:14.005Z,100913.03
2019-01-21T14:02:28.829Z,100915.23
2019-01-21T14:05:31.238Z,100914.73
2019-01-21T14:08:31.397Z,100912.38
2019-01-21T14:11:13.229Z,100909.69
2019-01-21T14:13:51.645Z,100900.47
2019-01-21T14:16:35.785Z,100897.95
2019-01-21T14:19:29.912Z,100901.30
2019-01-21T14:22:20.247Z,100896.06
2019-01-21T14:25:13.901Z,100896.23
2019-01-21T14:28:13.943Z,100890.13
2019-01-21T14:31:14.205Z,100891.02
2019-01-21T14:34:07.699Z,100882.30
2019-01-21T14:37:12.825Z,100867.98
2019-01-21T14:40:00.883Z,100866.67
2019-01-21T14:42:43.717Z,100866.34
2019-01-21T14:45:48.215Z,100862.69
2019-01-21T14:48:41.954Z,100860.41
2019-01-21T14:51:54.322Z,100861.55
2019-01-21T14:54:45.159Z,100862.55
2019-01-21T14:57:32.883Z,100859.54
2019-01-21T15:00:32.877Z,100859.63
2019-01-21T15:03:51.655Z,100864.15
2019-01-21T15:06:36.220Z,100858.38
2019-01-21T15:09:14.726Z,100852.59
2019-01-21T15:12:08.734Z,100850.72
2019-01-21T15:14:56.854Z,100860.81
2019-01-21T15:17:46.994Z,100869.52
2019-01-21T15:20:24.368Z,100866.81
2019-01-21T15:23:23.534Z,100856.79
2019-01-21T15:26:32.660Z,100859.23
2019-01-21T15:29:20.039Z,100867.17
2019-01-21T15:32:26.091Z,100865.06
2019-01-21T15:35:25.752Z,100861.80
2019-01-21T15:38:30.534Z,100861.86
2019-01-21T15:41:32.502Z,100861.77
2019-01-21T15:44:17.302Z,100861.75
2019-01-21T15:47:05.365Z,100860.73
2019-01-21T15:49:41.518Z,100855.77
2019-01-21T15:52:23.264Z,100855.94
2019-01-21T15:55:22.037Z,100856.58
2019-01-21T15:57:58.031Z,100864.92
2019-01-21T16:01:15.808Z,100875.97
2019-01-21T16:04:03.767Z,100880.14
2019-01-21T16:06:59.280Z,100880.06
2019-01-21T16:09:50.125Z,100886.66
2019-01-21T16:12:46.673Z,100879.08
2019-01-21T16:15:46.498Z,100884.37
2019-01-21T16:18:40.063Z,100885.63
2019-01-21T16:21:36.606Z,100878.36
2019-01-21T16:24:41.596Z,100886.69
2019-01-21T16:27:39.041Z,100887.89
2019-01-21T16:30:45.213Z,100888.15
2019-01-21T16:33:49.326Z,100888.18
2019-01-21T16:36:29.202Z,100888.52
2019-01-21T16:39:13.778Z,100886.20
2019-01-21T16:42:02.132Z,100879.92
2019-01-21T16:44:33.548Z,100875.53
2019-01-21T16:47:04.989Z,100876.12
2019-01-21T16:49:36.571Z,100876.84
2019-01-21T16:52:07.866Z,100872.50
2019-01-21T16:54:39.157Z,100877.27
2019-01-21T16:57:10.530Z,100880.93
2019-01-21T16:59:41.796Z,100877.58
2019-01-21T17:02:13.319Z,100877.50
2019-01-21T17:04:44.742Z,100883.41
2019-01-21T17:07:16.213Z,100885.23
2019-01-21T17:09:47.594Z,100891.50
2019-01-21T17:12:18.848Z,100888.72
2019-01-21T17:14:57.237Z,100899.30
2019-01-21T17:17:23.528Z,100900.20
2019-01-21T17:19:55.029Z,100902.30
2019-01-21T17:22:26.349Z,100896.32
2019-01-21T17:24:59.710Z,100893.53
2019-01-21T17:27:31.034Z,100891.53
2019-01-21T17:30:02.418Z,100892.23
2019-01-21T17:32:33.901Z,100890.34
2019-01-21T17:35:07.723Z,100878.57
2019-01-21T17:37:39.133Z,100874.38
2019-01-21T17:40:15.820Z,100872.89
2019-01-21T17:42:47.305Z,100870.70
2019-01-21T17:45:20.555Z,100866.51
2019-01-21T17:47:52.086Z,100863.72
2019-01-21T17:50:23.644Z,100867.10
2019-01-21T17:52:55.643Z,100866.01
2019-01-21T17:55:28.411Z,100862.31
2019-01-21T17:57:59.921Z,100867.41
2019-01-21T18:00:31.496Z,100865.80
2019-01-21T18:03:03.051Z,100862.91
2019-01-21T18:05:36.350Z,100866.19
2019-01-21T18:08:07.930Z,100870.47
2019-01-21T18:10:39.857Z,100864.39
2019-01-21T18:13:11.461Z,100864.36
2019-01-21T18:15:44.248Z,100865.33
2019-01-21T18:18:23.192Z,100863.36
2019-01-21T18:21:00.049Z,100863.73
2019-01-21T18:23:31.960Z,100860.65
2019-01-21T18:26:03.392Z,100859.25
2019-01-21T18:28:39.249Z,100854.17
2019-01-21T18:31:10.921Z,100857.93
2019-01-21T18:33:42.705Z,100858.70
2019-01-21T18:36:17.263Z,100859.17
2019-01-21T18:38:50.031Z,100863.13
2019-01-21T18:41:21.686Z,100861.13
2019-01-21T18:43:53.594Z,100850.91
2019-01-21T18:46:26.396Z,100855.34
2019-01-21T18:48:57.935Z,100862.06
2019-01-21T18:51:29.592Z,100864.22
2019-01-21T18:54:00.990Z,100862.50
2019-01-21T18:56:32.607Z,100857.39
2019-01-21T18:59:11.720Z,100854.59
2019-01-21T19:01:43.292Z,100858.87
2019-01-21T19:04:17.495Z,100857.53
2019-01-21T19:06:50.530Z,100850.96
2019-01-21T19:09:22.233Z,100851.14
2019-01-21T19:11:55.863Z,100845.36
2019-01-21T19:14:27.601Z,100852.72
2019-01-21T19:16:59.274Z,100848.05
2019-01-21T19:19:30.990Z,100846.32
2019-01-21T19:22:10.917Z,100848.97
2019-01-21T19:24:43.560Z,100857.41
2019-01-21T19:27:16.985Z,100859.44
2019-01-21T19:29:48.773Z,100862.30
2019-01-21T19:32:26.600Z,100855.22
2019-01-21T19:34:58.206Z,100852.62
2019-01-21T19:37:42.255Z,100855.17
2019-01-21T19:40:21.154Z,100860.63
2019-01-21T19:42:52.752Z,100857.94
2019-01-21T19:45:24.319Z,100858.75
2019-01-21T19:47:55.969Z,100860.32
2019-01-21T19:50:27.494Z,100861.90
2019-01-21T19:53:00.542Z,100864.77
2019-01-21T19:55:38.943Z,100859.25
2019-01-21T19:58:10.854Z,100861.59
2019-01-21T20:00:42.428Z,100853.16
2019-01-21T20:03:14.017Z,100853.75
2019-01-21T20:05:45.637Z,100856.67
2019-01-21T20:08:17.196Z,100852.35
2019-01-21T20:10:48.694Z,100854.98
2019-01-21T20:13:20.230Z,100857.63
2019-01-21T20:15:51.812Z,100854.48
2019-01-21T20:18:27.380Z,100855.44
2019-01-21T20:20:59.019Z,100862.52
2019-01-21T20:23:30.684Z,100866.56
2019-01-21T20:26:02.465Z,100865.77
2019-01-21T20:28:33.943Z,100855.94
2019-01-21T20:31:05.551Z,100851.88
2019-01-21T20:33:37.138Z,100849.19
2019-01-21T20:36:08.850Z,100844.70
2019-01-21T20:38:40.380Z,100849.52
2019-01-21T20:41:17.793Z,100848.50
2019-01-21T20:43:50.728Z,100849.63
2019-01-21T20:46:22.236Z,100855.25
2019-01-21T20:48:53.830Z,100852.16
2019-01-21T20:51:27.190Z,100846.89
2019-01-21T20:53:58.818Z,100844.08
2019-01-21T20:56:30.523Z,100842.19
2019-01-21T20:59:02.268Z,100834.66
2019-01-21T21:01:34.004Z,100829.97
2019-01-21T21:04:06.041Z,100824.80
2019-01-21T21:06:38.579Z,100827.73
2019-01-21T21:09:10.511Z,100819.92
2019-01-21T21:11:42.283Z,100817.11
2019-01-21T21:14:13.917Z,100821.38
2019-01-21T21:16:45.513Z,100819.07
2019-01-21T21:19:18.183Z,100817.04
2019-01-21T21:21:50.698Z,100814.53
2019-01-21T21:24:22.216Z,100812.93
2019-01-21T21:26:53.697Z,100809.91
2019-01-21T21:29:25.151Z,100810.70
2019-01-21T21:31:56.587Z,100813.97
2019-01-21T21:34:28.032Z,100816.77
2019-01-21T21:36:59.412Z,100813.13
2019-01-21T21:39:30.904Z,100816.27
2019-01-21T21:42:02.440Z,100812.56
2019-01-21T21:44:34.251Z,100806.03
2019-01-21T21:47:05.768Z,100801.19
2019-01-21T21:49:37.273Z,100796.52
2019-01-21T21:52:08.774Z,100793.33
2019-01-21T21:54:40.177Z,100794.97
2019-01-21T21:57:11.554Z,100792.44
2019-01-21T21:59:44.067Z,100784.69
2019-01-21T22:02:15.444Z,100779.20
2019-01-21T22:04:46.940Z,100780.26
2019-01-21T22:07:18.317Z,100770.16
2019-01-21T22:09:49.731Z,100769.52
2019-01-21T22:12:21.188Z,100769.99
2019-01-21T22:14:52.536Z,100770.66
2019-01-21T22:17:24.295Z,100771.17
2019-01-21T22:19:55.662Z,100770.61
2019-01-21T22:22:26.957Z,100761.38
2019-01-21T22:24:58.501Z,100755.87
2019-01-21T22:27:29.852Z,100758.44
2019-01-21T22:30:01.442Z,100760.66
2019-01-21T22:32:32.790Z,100760.39
2019-01-21T22:35:05.123Z,100758.17
2019-01-21T22:37:36.447Z,100756.48
2019-01-21T22:40:12.892Z,100752.81
2019-01-21T22:42:44.265Z,100752.58
2019-01-21T22:45:17.816Z,100749.10
2019-01-21T22:47:50.813Z,100744.63
2019-01-21T22:50:22.526Z,100749.58
2019-01-21T22:52:53.940Z,100747.16
2019-01-21T22:55:25.290Z,100746.42
2019-01-21T22:57:56.691Z,100741.19
2019-01-21T23:00:43.799Z,100739.04
2019-01-21T23:03:15.944Z,100747.05
2019-01-21T23:05:47.707Z,100743.97
2019-01-21T23:08:19.075Z,100741.46
2019-01-21T23:10:50.741Z,100742.67
2019-01-21T23:13:22.213Z,100736.11
2019-01-21T23:15:53.801Z,100735.33
2019-01-21T23:18:25.169Z,100736.46
2019-01-21T23:20:57.038Z,100730.80
2019-01-21T23:23:28.350Z,100729.23
2019-01-21T23:25:59.764Z,100726.55
2019-01-21T23:28:31.140Z,100732.44
2019-01-21T23:31:02.583Z,100731.89
2019-01-21T23:33:34.095Z,100733.68
2019-01-21T23:36:05.795Z,100724.47
2019-01-21T23:38:37.889Z,100723.80
2019-01-21T23:41:09.471Z,100727.52
2019-01-21T23:43:40.879Z,100728.61
2019-01-21T23:46:12.248Z,100721.20
2019-01-21T23:48:43.631Z,100724.16
2019-01-21T23:51:15.101Z,100719.20
2019-01-21T23:53:46.549Z,100713.16
2019-01-21T23:56:18.051Z,100711.52
2019-01-21T23:58:49.361Z,100710.77
